Flight Track Log - Related Links

Times and Time Zones

All times are in EDT time to prevent confusion due to time zone crossing. See the SWA2966 flight status page for this flight to view local times or setup timezone preferences in your user account.


Time Position Orientation Groundspeed Altitude Reporting Facility
EDT Latitude Longitude Course Direction KTS MPH feet Rate Location/Type
Mon 03:23:06 PM 37.7333 -122.2500 299° West 149 171 1,800  Level Northern Cal TRACON
Mon 03:24:01 PM 37.7508 -122.2903 299° West 179 206 3,700 2,897 Climbing Oakland Center
Mon 03:25:02 PM 37.7619 -122.3581 282° West 206 237 7,400 3,268 Climbing Oakland Center
Mon 03:26:04 PM 37.6922 -122.3853 197° South 260 299 10,400 2,829 Climbing Oakland Center
Mon 03:27:05 PM 37.5753 -122.4150 191° South 369 425 13,200 3,073 Climbing Oakland Center
Mon 03:28:07 PM 37.4922 -122.3233 139° Southeast 416 479 16,700 2,829 Climbing Oakland Center
Mon 03:29:08 PM 37.4189 -122.2006 127° Southeast 438 504 19,000 1,623 Climbing Oakland Center
Mon 03:30:09 PM 37.3408 -122.0786 129° Southeast 446 513 20,000 1,951 Climbing Oakland Center
Mon 03:31:11 PM 37.2608 -121.9550 129° Southeast 456 525 23,000 2,927 Climbing Oakland Center
Mon 03:32:12 PM 37.1733 -121.8158 128° Southeast 472 543 26,000 3,148 Climbing Oakland Center
Mon 03:33:13 PM 37.0917 -121.6869 128° Southeast 474 545 29,400 2,829 Climbing Oakland Center
Mon 03:34:15 PM 37.0156 -121.5719 130° Southeast 465 535 31,800 2,439 Climbing Oakland Center
Mon 03:35:16 PM 36.9361 -121.4483 129° Southeast 458 527 34,400 2,410 Climbing Oakland Center
Mon 03:36:17 PM 36.8414 -121.2992 128° Southeast 458 527 36,700 1,902 Climbing Oakland Center
Mon 03:37:19 PM 36.7681 -121.1908 130° Southeast 456 525 38,300 1,122 Climbing Oakland Center
Mon 03:38:20 PM 36.6886 -121.0664 129° Southeast 458 527 39,000 344 Climbing Oakland Center
Mon 03:39:21 PM 36.6081 -120.9428 129° Southeast 460 529 39,000  Level Oakland Center
Mon 03:40:22 PM 36.5261 -120.8214 130° Southeast 458 527 39,000  Level Oakland Center
Mon 03:41:24 PM 36.4297 -120.6703 128° Southeast 463 533 39,000  Level Oakland Center
Mon 03:42:25 PM 36.3481 -120.5483 130° Southeast 461 531 39,000  Level Oakland Center
Mon 03:43:26 PM 36.2631 -120.4228 130° Southeast 477 549 39,000  Level Oakland Center
Mon 03:44:27 PM 36.1800 -120.2994 130° Southeast 465 535 39,000  Level Oakland Center
Mon 03:45:29 PM 36.0969 -120.1747 129° Southeast 467 537 39,000  Level Oakland Center
Mon 03:46:30 PM 36.0147 -120.0517 130° Southeast 464 534 39,000  Level Oakland Center
Mon 03:47:31 PM 35.9328 -119.9331 130° Southeast 455 524 39,000  Level Oakland Center
Mon 03:48:33 PM 35.8492 -119.8111 130° Southeast 462 532 39,000  Level Oakland Center
Mon 03:49:34 PM 35.7664 -119.6883 130° Southeast 463 533 39,000  Level Oakland Center
Mon 03:50:35 PM 35.6817 -119.5647 130° Southeast 467 537 39,000  Level Oakland Center
Mon 03:51:37 PM 35.5961 -119.4439 131° Southeast 467 537 39,000 -195 Level Oakland Center
Mon 03:52:38 PM 35.5122 -119.3211 130° Southeast 468 539 38,600 -787 Descending Oakland Center
Mon 03:53:39 PM 35.4108 -119.1758 131° Southeast 466 536 37,400 -1,105 Descending Oakland Center
Mon 03:53:54 PM 35.3983 -119.1511 122° Southeast 466 536 37,200 -846 Descending Los Angeles Center
Mon 03:54:57 PM 35.3147 -119.0292 130° Southeast 467 537 36,300 -912 Descending Los Angeles Center
Mon 03:55:59 PM 35.2314 -118.9100 131° Southeast 465 535 35,300 -919 Descending Los Angeles Center
Mon 03:57:01 PM 35.1458 -118.7900 131° Southeast 465 535 34,400 -919 Descending Los Angeles Center
Mon 03:58:03 PM 35.0611 -118.6681 130° Southeast 469 540 33,400 -1,403 Descending Los Angeles Center
Mon 03:59:05 PM 34.9575 -118.5231 131° Southeast 473 544 31,500 -1,355 Descending Los Angeles Center
Mon 04:00:07 PM 34.8761 -118.4083 131° Southeast 467 537 30,600 -2,613 Descending Los Angeles Center
Mon 04:01:09 PM 34.7906 -118.2878 131° Southeast 472 543 26,100 -3,581 Descending Los Angeles Center
Mon 04:02:11 PM 34.7033 -118.1664 131° Southeast 480 552 23,200 -2,784 Descending Los Angeles Center
Mon 04:03:14 PM 34.6125 -118.0256 128° Southeast 444 511 20,300 -2,592 Descending Los Angeles Center
Mon 04:04:16 PM 34.5569 -117.9044 119° Southeast 418 481 17,800 -2,323 Descending Los Angeles Center
Mon 04:05:18 PM 34.5031 -117.7878 119° Southeast 402 463 15,500 -1,839 Descending Los Angeles Center
Mon 04:06:20 PM 34.4533 -117.6778 119° Southeast 379 436 14,000 -774 Descending Los Angeles Center
Mon 04:07:22 PM 34.4050 -117.5731 119° Southeast 362 417 13,900 -677 Descending Los Angeles Center
Mon 04:08:24 PM 34.3531 -117.4606 119° Southeast 336 387 12,600 -1,694 Descending Los Angeles Center
Mon 04:09:26 PM 34.3111 -117.3683 119° Southeast 318 366 10,400 -2,081 Descending Los Angeles Center
Mon 04:10:28 PM 34.2408 -117.3319 157° South 293 337 8,300 -1,728 Descending Los Angeles Center
Mon 04:11:31 PM 34.1647 -117.3456 188° South 276 318 6,800 -1,680 Descending Los Angeles Center
Mon 04:12:33 PM 34.0833 -117.3586 188° South 250 288 4,800 -1,548 Descending Los Angeles Center
Mon 04:13:35 PM 34.0575 -117.4128 240° Southwest 228 262 3,600 -1,045 Descending Los Angeles Center
Mon 04:14:45 PM 34.0500 -117.4833 263° West 180 207 2,500 -877 Descending Southern California TRACON
Mon 04:15:45 PM 34.0500 -117.5333 270° West 134 154 1,700 -800 Descending Southern California TRACON
Mon 04:18:00 PM 34.0500 -117.6000 270° West  Level FlightAware Approximate

Login

Don't have an account? Register now (free) for customized features, flight alerts, and more!